sensor_id;sensor_type;location;lat;lon;timestamp;P1;durP1;ratioP1;P2;durP2;ratioP2
13303;SDS011;6720;51.958;4.540;2023-01-29T00:01:50;20.23;;;14.97;;
13303;SDS011;6720;51.958;4.540;2023-01-29T00:04:16;22.40;;;15.80;;
13303;SDS011;6720;51.958;4.540;2023-01-29T00:06:41;20.43;;;15.53;;
13303;SDS011;6720;51.958;4.540;2023-01-29T00:09:07;18.83;;;15.37;;
13303;SDS011;6720;51.958;4.540;2023-01-29T00:11:33;18.33;;;15.07;;
13303;SDS011;6720;51.958;4.540;2023-01-29T00:13:59;21.13;;;15.57;;
13303;SDS011;6720;51.958;4.540;2023-01-29T00:16:24;19.30;;;15.53;;
13303;SDS011;6720;51.958;4.540;2023-01-29T00:18:49;17.97;;;15.27;;
13303;SDS011;6720;51.958;4.540;2023-01-29T00:21:16;19.10;;;15.37;;
13303;SDS011;6720;51.958;4.540;2023-01-29T00:23:42;18.83;;;14.90;;
13303;SDS011;6720;51.958;4.540;2023-01-29T00:26:07;23.60;;;18.03;;
13303;SDS011;6720;51.958;4.540;2023-01-29T00:28:33;20.30;;;16.13;;
13303;SDS011;6720;51.958;4.540;2023-01-29T00:31:05;18.23;;;14.73;;
13303;SDS011;6720;51.958;4.540;2023-01-29T00:33:31;19.27;;;15.03;;
13303;SDS011;6720;51.958;4.540;2023-01-29T00:35:57;18.00;;;14.50;;
13303;SDS011;6720;51.958;4.540;2023-01-29T00:38:22;20.03;;;15.33;;
13303;SDS011;6720;51.958;4.540;2023-01-29T00:40:47;19.53;;;15.00;;
13303;SDS011;6720;51.958;4.540;2023-01-29T00:43:31;18.67;;;14.97;;
13303;SDS011;6720;51.958;4.540;2023-01-29T00:46:15;20.23;;;15.77;;
13303;SDS011;6720;51.958;4.540;2023-01-29T00:48:40;19.60;;;15.03;;
13303;SDS011;6720;51.958;4.540;2023-01-29T00:51:06;18.77;;;15.77;;
13303;SDS011;6720;51.958;4.540;2023-01-29T00:53:31;21.23;;;15.83;;
13303;SDS011;6720;51.958;4.540;2023-01-29T00:55:56;23.03;;;16.27;;
13303;SDS011;6720;51.958;4.540;2023-01-29T00:58:22;18.97;;;15.33;;
13303;SDS011;6720;51.958;4.540;2023-01-29T01:00:52;19.63;;;15.77;;
13303;SDS011;6720;51.958;4.540;2023-01-29T01:03:17;17.40;;;14.77;;
13303;SDS011;6720;51.958;4.540;2023-01-29T01:05:42;17.57;;;14.27;;
13303;SDS011;6720;51.958;4.540;2023-01-29T01:08:08;18.13;;;14.60;;
13303;SDS011;6720;51.958;4.540;2023-01-29T01:10:59;17.83;;;15.33;;
13303;SDS011;6720;51.958;4.540;2023-01-29T01:13:25;21.67;;;15.33;;
13303;SDS011;6720;51.958;4.540;2023-01-29T01:15:50;17.47;;;14.83;;
13303;SDS011;6720;51.958;4.540;2023-01-29T01:18:15;17.70;;;14.80;;
13303;SDS011;6720;51.958;4.540;2023-01-29T01:20:40;16.07;;;13.53;;
13303;SDS011;6720;51.958;4.540;2023-01-29T01:23:06;18.17;;;14.43;;
13303;SDS011;6720;51.958;4.540;2023-01-29T01:25:31;15.80;;;13.83;;
13303;SDS011;6720;51.958;4.540;2023-01-29T01:27:57;17.40;;;14.57;;
13303;SDS011;6720;51.958;4.540;2023-01-29T01:30:23;16.53;;;13.87;;
13303;SDS011;6720;51.958;4.540;2023-01-29T01:32:49;16.07;;;13.80;;
13303;SDS011;6720;51.958;4.540;2023-01-29T01:35:14;16.10;;;13.57;;
13303;SDS011;6720;51.958;4.540;2023-01-29T01:37:40;16.37;;;12.93;;
13303;SDS011;6720;51.958;4.540;2023-01-29T01:40:06;16.07;;;12.83;;
13303;SDS011;6720;51.958;4.540;2023-01-29T01:42:37;16.30;;;13.43;;
13303;SDS011;6720;51.958;4.540;2023-01-29T01:45:03;15.53;;;13.00;;
13303;SDS011;6720;51.958;4.540;2023-01-29T01:49:59;16.87;;;13.17;;
13303;SDS011;6720;51.958;4.540;2023-01-29T01:52:26;15.60;;;13.87;;
13303;SDS011;6720;51.958;4.540;2023-01-29T01:54:53;17.57;;;14.43;;
13303;SDS011;6720;51.958;4.540;2023-01-29T01:57:19;15.80;;;14.10;;
13303;SDS011;6720;51.958;4.540;2023-01-29T01:59:49;18.27;;;14.70;;
13303;SDS011;6720;51.958;4.540;2023-01-29T02:02:16;17.53;;;14.67;;
13303;SDS011;6720;51.958;4.540;2023-01-29T02:05:01;21.23;;;16.40;;
13303;SDS011;6720;51.958;4.540;2023-01-29T02:07:45;19.20;;;15.60;;
13303;SDS011;6720;51.958;4.540;2023-01-29T02:10:31;19.27;;;15.77;;
13303;SDS011;6720;51.958;4.540;2023-01-29T02:13:09;20.17;;;17.10;;
13303;SDS011;6720;51.958;4.540;2023-01-29T02:15:45;19.70;;;15.67;;
13303;SDS011;6720;51.958;4.540;2023-01-29T02:18:16;18.20;;;15.40;;
13303;SDS011;6720;51.958;4.540;2023-01-29T02:20:43;19.37;;;16.30;;
13303;SDS011;6720;51.958;4.540;2023-01-29T02:28:50;21.43;;;17.17;;
13303;SDS011;6720;51.958;4.540;2023-01-29T02:36:11;20.53;;;17.17;;
13303;SDS011;6720;51.958;4.540;2023-01-29T02:38:40;22.60;;;18.87;;
13303;SDS011;6720;51.958;4.540;2023-01-29T02:41:15;20.83;;;18.30;;
13303;SDS011;6720;51.958;4.540;2023-01-29T02:43:46;23.53;;;18.37;;
13303;SDS011;6720;51.958;4.540;2023-01-29T02:56:40;24.17;;;19.70;;
13303;SDS011;6720;51.958;4.540;2023-01-29T02:59:15;23.93;;;17.80;;
13303;SDS011;6720;51.958;4.540;2023-01-29T03:01:48;25.27;;;19.47;;
13303;SDS011;6720;51.958;4.540;2023-01-29T03:04:21;25.70;;;19.60;;
13303;SDS011;6720;51.958;4.540;2023-01-29T03:06:49;24.20;;;20.30;;
13303;SDS011;6720;51.958;4.540;2023-01-29T03:09:33;23.87;;;19.33;;
13303;SDS011;6720;51.958;4.540;2023-01-29T03:12:03;23.83;;;19.77;;
13303;SDS011;6720;51.958;4.540;2023-01-29T03:14:42;26.47;;;20.17;;
13303;SDS011;6720;51.958;4.540;2023-01-29T03:17:31;24.27;;;19.60;;
13303;SDS011;6720;51.958;4.540;2023-01-29T03:19:57;25.33;;;20.50;;
13303;SDS011;6720;51.958;4.540;2023-01-29T03:22:22;27.03;;;21.00;;
13303;SDS011;6720;51.958;4.540;2023-01-29T03:25:06;24.70;;;19.90;;
13303;SDS011;6720;51.958;4.540;2023-01-29T03:27:51;25.17;;;20.43;;
13303;SDS011;6720;51.958;4.540;2023-01-29T03:30:37;27.70;;;22.23;;
13303;SDS011;6720;51.958;4.540;2023-01-29T03:33:23;25.40;;;20.63;;
13303;SDS011;6720;51.958;4.540;2023-01-29T03:35:52;26.20;;;21.33;;
13303;SDS011;6720;51.958;4.540;2023-01-29T03:38:20;25.80;;;19.53;;
13303;SDS011;6720;51.958;4.540;2023-01-29T03:40:52;27.57;;;21.53;;
13303;SDS011;6720;51.958;4.540;2023-01-29T03:43:28;25.20;;;20.03;;
13303;SDS011;6720;51.958;4.540;2023-01-29T03:48:44;25.70;;;20.40;;
13303;SDS011;6720;51.958;4.540;2023-01-29T03:51:24;24.67;;;20.43;;
13303;SDS011;6720;51.958;4.540;2023-01-29T04:01:55;24.07;;;19.07;;
13303;SDS011;6720;51.958;4.540;2023-01-29T04:04:29;25.63;;;21.50;;
13303;SDS011;6720;51.958;4.540;2023-01-29T04:06:56;27.17;;;19.90;;
13303;SDS011;6720;51.958;4.540;2023-01-29T04:09:27;23.63;;;20.10;;
13303;SDS011;6720;51.958;4.540;2023-01-29T04:11:58;25.03;;;19.60;;
13303;SDS011;6720;51.958;4.540;2023-01-29T04:14:26;25.67;;;20.33;;
13303;SDS011;6720;51.958;4.540;2023-01-29T04:16:52;25.17;;;20.33;;
13303;SDS011;6720;51.958;4.540;2023-01-29T04:19:19;24.87;;;20.37;;
13303;SDS011;6720;51.958;4.540;2023-01-29T04:21:45;24.30;;;19.07;;
13303;SDS011;6720;51.958;4.540;2023-01-29T04:24:13;23.33;;;19.37;;
13303;SDS011;6720;51.958;4.540;2023-01-29T04:26:57;23.23;;;19.67;;
13303;SDS011;6720;51.958;4.540;2023-01-29T04:40:19;20.77;;;18.40;;
13303;SDS011;6720;51.958;4.540;2023-01-29T04:50:12;21.80;;;18.00;;
13303;SDS011;6720;51.958;4.540;2023-01-29T04:55:20;22.17;;;17.27;;
13303;SDS011;6720;51.958;4.540;2023-01-29T04:57:51;19.97;;;16.43;;
13303;SDS011;6720;51.958;4.540;2023-01-29T05:00:27;22.10;;;18.20;;
13303;SDS011;6720;51.958;4.540;2023-01-29T05:02:54;21.80;;;18.07;;
13303;SDS011;6720;51.958;4.540;2023-01-29T05:05:20;21.40;;;18.10;;
13303;SDS011;6720;51.958;4.540;2023-01-29T05:07:46;22.80;;;17.67;;
13303;SDS011;6720;51.958;4.540;2023-01-29T05:10:12;23.23;;;18.57;;
13303;SDS011;6720;51.958;4.540;2023-01-29T05:12:51;24.20;;;19.27;;
13303;SDS011;6720;51.958;4.540;2023-01-29T05:15:38;22.60;;;18.53;;
13303;SDS011;6720;51.958;4.540;2023-01-29T05:18:30;22.20;;;17.97;;
13303;SDS011;6720;51.958;4.540;2023-01-29T05:21:10;25.43;;;19.43;;
13303;SDS011;6720;51.958;4.540;2023-01-29T05:26:52;25.90;;;19.57;;
13303;SDS011;6720;51.958;4.540;2023-01-29T05:29:52;20.10;;;17.63;;
13303;SDS011;6720;51.958;4.540;2023-01-29T05:32:34;23.33;;;18.77;;
13303;SDS011;6720;51.958;4.540;2023-01-29T05:35:28;24.30;;;19.20;;
13303;SDS011;6720;51.958;4.540;2023-01-29T05:38:06;23.93;;;19.20;;
13303;SDS011;6720;51.958;4.540;2023-01-29T05:40:32;27.23;;;19.53;;
13303;SDS011;6720;51.958;4.540;2023-01-29T05:43:12;23.00;;;20.03;;
13303;SDS011;6720;51.958;4.540;2023-01-29T05:46:01;23.77;;;19.80;;
13303;SDS011;6720;51.958;4.540;2023-01-29T05:48:56;25.73;;;19.87;;
13303;SDS011;6720;51.958;4.540;2023-01-29T05:51:43;24.80;;;19.47;;
13303;SDS011;6720;51.958;4.540;2023-01-29T05:54:29;24.37;;;19.53;;
13303;SDS011;6720;51.958;4.540;2023-01-29T05:57:04;24.50;;;19.33;;
13303;SDS011;6720;51.958;4.540;2023-01-29T05:59:30;24.60;;;19.40;;
13303;SDS011;6720;51.958;4.540;2023-01-29T06:01:56;23.50;;;19.43;;
13303;SDS011;6720;51.958;4.540;2023-01-29T06:04:34;26.90;;;20.83;;
13303;SDS011;6720;51.958;4.540;2023-01-29T06:07:23;24.30;;;18.50;;
13303;SDS011;6720;51.958;4.540;2023-01-29T06:10:02;24.63;;;20.00;;
13303;SDS011;6720;51.958;4.540;2023-01-29T06:12:38;25.97;;;20.13;;
13303;SDS011;6720;51.958;4.540;2023-01-29T06:15:11;24.30;;;20.23;;
13303;SDS011;6720;51.958;4.540;2023-01-29T06:17:48;24.10;;;19.80;;
13303;SDS011;6720;51.958;4.540;2023-01-29T06:20:32;26.70;;;20.57;;
13303;SDS011;6720;51.958;4.540;2023-01-29T06:23:21;21.80;;;18.70;;
13303;SDS011;6720;51.958;4.540;2023-01-29T06:25:59;23.77;;;20.20;;
13303;SDS011;6720;51.958;4.540;2023-01-29T06:28:37;24.10;;;18.80;;
13303;SDS011;6720;51.958;4.540;2023-01-29T06:31:14;23.60;;;20.07;;
13303;SDS011;6720;51.958;4.540;2023-01-29T06:33:40;26.17;;;20.83;;
13303;SDS011;6720;51.958;4.540;2023-01-29T06:36:05;25.23;;;20.47;;
13303;SDS011;6720;51.958;4.540;2023-01-29T06:38:31;23.03;;;19.57;;
13303;SDS011;6720;51.958;4.540;2023-01-29T06:40:56;26.10;;;20.73;;
13303;SDS011;6720;51.958;4.540;2023-01-29T06:43:21;26.20;;;20.27;;
13303;SDS011;6720;51.958;4.540;2023-01-29T06:45:48;26.67;;;20.87;;
13303;SDS011;6720;51.958;4.540;2023-01-29T06:48:13;26.90;;;19.17;;
13303;SDS011;6720;51.958;4.540;2023-01-29T06:50:38;26.80;;;20.90;;
13303;SDS011;6720;51.958;4.540;2023-01-29T06:53:04;23.97;;;20.60;;
13303;SDS011;6720;51.958;4.540;2023-01-29T06:55:29;27.00;;;21.67;;
13303;SDS011;6720;51.958;4.540;2023-01-29T06:57:54;24.77;;;20.30;;
13303;SDS011;6720;51.958;4.540;2023-01-29T07:00:19;25.23;;;20.60;;
13303;SDS011;6720;51.958;4.540;2023-01-29T07:02:47;23.77;;;20.23;;
13303;SDS011;6720;51.958;4.540;2023-01-29T07:05:12;24.43;;;20.30;;
13303;SDS011;6720;51.958;4.540;2023-01-29T07:07:38;27.90;;;20.80;;
13303;SDS011;6720;51.958;4.540;2023-01-29T07:10:03;24.20;;;20.10;;
13303;SDS011;6720;51.958;4.540;2023-01-29T07:12:29;24.17;;;20.00;;
13303;SDS011;6720;51.958;4.540;2023-01-29T07:14:54;26.00;;;20.87;;
13303;SDS011;6720;51.958;4.540;2023-01-29T07:17:19;24.57;;;20.67;;
13303;SDS011;6720;51.958;4.540;2023-01-29T07:19:45;24.50;;;20.00;;
13303;SDS011;6720;51.958;4.540;2023-01-29T07:22:10;24.30;;;19.93;;
13303;SDS011;6720;51.958;4.540;2023-01-29T07:24:35;24.70;;;20.03;;
13303;SDS011;6720;51.958;4.540;2023-01-29T07:27:01;24.33;;;20.90;;
13303;SDS011;6720;51.958;4.540;2023-01-29T07:29:26;28.00;;;20.50;;
13303;SDS011;6720;51.958;4.540;2023-01-29T07:31:51;23.80;;;19.83;;
13303;SDS011;6720;51.958;4.540;2023-01-29T07:34:16;24.17;;;20.57;;
13303;SDS011;6720;51.958;4.540;2023-01-29T07:36:51;25.13;;;20.53;;
13303;SDS011;6720;51.958;4.540;2023-01-29T07:39:36;23.27;;;19.97;;
13303;SDS011;6720;51.958;4.540;2023-01-29T07:42:13;25.30;;;20.77;;
13303;SDS011;6720;51.958;4.540;2023-01-29T07:44:47;28.80;;;20.97;;
13303;SDS011;6720;51.958;4.540;2023-01-29T07:47:33;26.47;;;20.47;;
13303;SDS011;6720;51.958;4.540;2023-01-29T07:50:22;25.50;;;20.77;;
13303;SDS011;6720;51.958;4.540;2023-01-29T07:53:00;25.90;;;20.57;;
13303;SDS011;6720;51.958;4.540;2023-01-29T07:55:32;25.80;;;20.97;;
13303;SDS011;6720;51.958;4.540;2023-01-29T07:58:15;22.67;;;19.20;;
13303;SDS011;6720;51.958;4.540;2023-01-29T08:00:49;23.30;;;20.00;;
13303;SDS011;6720;51.958;4.540;2023-01-29T08:03:18;24.67;;;20.33;;
13303;SDS011;6720;51.958;4.540;2023-01-29T08:05:45;24.80;;;20.57;;
13303;SDS011;6720;51.958;4.540;2023-01-29T08:08:22;23.17;;;20.43;;
13303;SDS011;6720;51.958;4.540;2023-01-29T08:11:09;24.87;;;19.87;;
13303;SDS011;6720;51.958;4.540;2023-01-29T08:13:53;26.67;;;20.70;;
13303;SDS011;6720;51.958;4.540;2023-01-29T08:16:27;24.30;;;21.07;;
13303;SDS011;6720;51.958;4.540;2023-01-29T08:18:52;26.13;;;20.47;;
13303;SDS011;6720;51.958;4.540;2023-01-29T08:21:17;24.93;;;21.17;;
13303;SDS011;6720;51.958;4.540;2023-01-29T08:23:43;24.63;;;20.97;;
13303;SDS011;6720;51.958;4.540;2023-01-29T08:26:09;24.63;;;20.50;;
13303;SDS011;6720;51.958;4.540;2023-01-29T08:28:35;26.60;;;21.27;;
13303;SDS011;6720;51.958;4.540;2023-01-29T08:31:03;24.67;;;20.93;;
13303;SDS011;6720;51.958;4.540;2023-01-29T08:33:29;24.43;;;21.57;;
13303;SDS011;6720;51.958;4.540;2023-01-29T08:35:54;24.47;;;20.57;;
13303;SDS011;6720;51.958;4.540;2023-01-29T08:38:25;24.90;;;21.00;;
13303;SDS011;6720;51.958;4.540;2023-01-29T08:41:00;24.03;;;21.47;;
13303;SDS011;6720;51.958;4.540;2023-01-29T08:43:25;26.17;;;21.07;;
13303;SDS011;6720;51.958;4.540;2023-01-29T08:45:50;27.50;;;21.00;;
13303;SDS011;6720;51.958;4.540;2023-01-29T08:48:16;25.60;;;21.57;;
13303;SDS011;6720;51.958;4.540;2023-01-29T08:50:41;26.97;;;22.43;;
13303;SDS011;6720;51.958;4.540;2023-01-29T08:53:07;28.00;;;22.17;;
13303;SDS011;6720;51.958;4.540;2023-01-29T08:55:36;27.47;;;22.37;;
13303;SDS011;6720;51.958;4.540;2023-01-29T08:58:11;26.27;;;22.27;;
13303;SDS011;6720;51.958;4.540;2023-01-29T09:00:36;26.70;;;22.40;;
13303;SDS011;6720;51.958;4.540;2023-01-29T09:03:01;27.93;;;22.17;;
13303;SDS011;6720;51.958;4.540;2023-01-29T09:05:28;30.63;;;23.07;;
13303;SDS011;6720;51.958;4.540;2023-01-29T09:07:55;28.87;;;23.13;;
13303;SDS011;6720;51.958;4.540;2023-01-29T09:10:20;31.97;;;23.90;;
13303;SDS011;6720;51.958;4.540;2023-01-29T09:12:46;28.93;;;22.90;;
13303;SDS011;6720;51.958;4.540;2023-01-29T09:15:11;28.63;;;23.47;;
13303;SDS011;6720;51.958;4.540;2023-01-29T09:17:36;28.43;;;22.60;;
13303;SDS011;6720;51.958;4.540;2023-01-29T09:20:01;28.87;;;23.20;;
13303;SDS011;6720;51.958;4.540;2023-01-29T09:22:27;30.20;;;22.47;;
13303;SDS011;6720;51.958;4.540;2023-01-29T09:24:52;30.03;;;23.73;;
13303;SDS011;6720;51.958;4.540;2023-01-29T09:27:17;29.77;;;24.83;;
13303;SDS011;6720;51.958;4.540;2023-01-29T09:29:43;28.57;;;23.10;;
13303;SDS011;6720;51.958;4.540;2023-01-29T09:32:08;32.63;;;24.53;;
13303;SDS011;6720;51.958;4.540;2023-01-29T09:34:33;29.80;;;23.10;;
13303;SDS011;6720;51.958;4.540;2023-01-29T09:36:59;32.13;;;24.63;;
13303;SDS011;6720;51.958;4.540;2023-01-29T09:39:33;33.00;;;24.40;;
13303;SDS011;6720;51.958;4.540;2023-01-29T09:42:10;31.27;;;24.97;;
13303;SDS011;6720;51.958;4.540;2023-01-29T09:45:37;31.40;;;24.67;;
13303;SDS011;6720;51.958;4.540;2023-01-29T09:47:42;29.10;;;24.27;;
13303;SDS011;6720;51.958;4.540;2023-01-29T09:50:42;29.67;;;24.43;;
13303;SDS011;6720;51.958;4.540;2023-01-29T09:53:39;33.00;;;26.03;;
13303;SDS011;6720;51.958;4.540;2023-01-29T09:56:21;33.40;;;25.90;;
13303;SDS011;6720;51.958;4.540;2023-01-29T09:58:52;32.40;;;26.17;;
13303;SDS011;6720;51.958;4.540;2023-01-29T10:12:19;31.33;;;24.90;;
13303;SDS011;6720;51.958;4.540;2023-01-29T10:17:51;31.43;;;26.33;;
13303;SDS011;6720;51.958;4.540;2023-01-29T10:20:42;34.20;;;26.20;;
13303;SDS011;6720;51.958;4.540;2023-01-29T10:23:18;35.33;;;26.50;;
13303;SDS011;6720;51.958;4.540;2023-01-29T10:25:49;32.63;;;25.77;;
13303;SDS011;6720;51.958;4.540;2023-01-29T10:28:18;34.37;;;25.43;;
13303;SDS011;6720;51.958;4.540;2023-01-29T10:30:46;31.60;;;24.67;;
13303;SDS011;6720;51.958;4.540;2023-01-29T10:33:14;32.30;;;25.67;;
13303;SDS011;6720;51.958;4.540;2023-01-29T10:35:42;34.93;;;27.13;;
13303;SDS011;6720;51.958;4.540;2023-01-29T10:38:13;37.37;;;26.80;;
13303;SDS011;6720;51.958;4.540;2023-01-29T10:40:42;31.40;;;25.30;;
13303;SDS011;6720;51.958;4.540;2023-01-29T10:43:12;34.87;;;27.37;;
13303;SDS011;6720;51.958;4.540;2023-01-29T10:50:53;32.50;;;27.40;;
13303;SDS011;6720;51.958;4.540;2023-01-29T11:00:58;33.43;;;28.00;;
13303;SDS011;6720;51.958;4.540;2023-01-29T11:03:27;34.33;;;27.17;;
13303;SDS011;6720;51.958;4.540;2023-01-29T11:08:20;32.43;;;26.10;;
13303;SDS011;6720;51.958;4.540;2023-01-29T11:11:08;32.30;;;26.40;;
13303;SDS011;6720;51.958;4.540;2023-01-29T11:13:34;35.33;;;27.03;;
13303;SDS011;6720;51.958;4.540;2023-01-29T11:16:00;30.20;;;23.20;;
13303;SDS011;6720;51.958;4.540;2023-01-29T11:18:25;33.33;;;26.90;;
13303;SDS011;6720;51.958;4.540;2023-01-29T11:21:02;33.50;;;27.80;;
13303;SDS011;6720;51.958;4.540;2023-01-29T11:23:31;32.93;;;26.60;;
13303;SDS011;6720;51.958;4.540;2023-01-29T11:25:57;32.30;;;25.23;;
13303;SDS011;6720;51.958;4.540;2023-01-29T11:28:39;34.23;;;26.20;;
13303;SDS011;6720;51.958;4.540;2023-01-29T11:31:15;33.03;;;26.77;;
13303;SDS011;6720;51.958;4.540;2023-01-29T11:33:40;33.37;;;27.10;;
13303;SDS011;6720;51.958;4.540;2023-01-29T11:36:19;32.07;;;27.73;;
13303;SDS011;6720;51.958;4.540;2023-01-29T11:38:44;33.47;;;26.80;;
13303;SDS011;6720;51.958;4.540;2023-01-29T11:41:13;31.80;;;25.40;;
13303;SDS011;6720;51.958;4.540;2023-01-29T11:43:42;31.50;;;25.07;;
13303;SDS011;6720;51.958;4.540;2023-01-29T11:46:10;32.87;;;27.07;;
13303;SDS011;6720;51.958;4.540;2023-01-29T11:48:46;31.40;;;26.43;;
13303;SDS011;6720;51.958;4.540;2023-01-29T11:51:21;34.67;;;27.60;;
13303;SDS011;6720;51.958;4.540;2023-01-29T11:53:49;33.17;;;25.57;;
13303;SDS011;6720;51.958;4.540;2023-01-29T11:56:17;33.57;;;27.07;;
13303;SDS011;6720;51.958;4.540;2023-01-29T11:58:44;34.07;;;26.87;;
13303;SDS011;6720;51.958;4.540;2023-01-29T12:01:10;34.30;;;27.30;;
13303;SDS011;6720;51.958;4.540;2023-01-29T12:03:38;32.73;;;26.73;;
13303;SDS011;6720;51.958;4.540;2023-01-29T12:06:18;31.27;;;26.07;;
13303;SDS011;6720;51.958;4.540;2023-01-29T12:08:44;32.00;;;24.50;;
13303;SDS011;6720;51.958;4.540;2023-01-29T12:11:23;33.87;;;26.10;;
13303;SDS011;6720;51.958;4.540;2023-01-29T12:13:58;30.90;;;23.97;;
13303;SDS011;6720;51.958;4.540;2023-01-29T12:21:44;28.87;;;23.17;;
13303;SDS011;6720;51.958;4.540;2023-01-29T12:26:54;30.40;;;24.93;;
13303;SDS011;6720;51.958;4.540;2023-01-29T12:29:43;28.57;;;24.57;;
13303;SDS011;6720;51.958;4.540;2023-01-29T12:34:49;29.90;;;24.73;;
13303;SDS011;6720;51.958;4.540;2023-01-29T12:39:42;30.53;;;22.93;;
13303;SDS011;6720;51.958;4.540;2023-01-29T12:42:11;30.27;;;25.43;;
13303;SDS011;6720;51.958;4.540;2023-01-29T12:44:41;31.37;;;23.80;;
13303;SDS011;6720;51.958;4.540;2023-01-29T12:47:56;28.27;;;23.27;;
13303;SDS011;6720;51.958;4.540;2023-01-29T12:49:56;31.33;;;24.23;;
13303;SDS011;6720;51.958;4.540;2023-01-29T12:52:38;27.80;;;22.50;;
13303;SDS011;6720;51.958;4.540;2023-01-29T12:55:10;31.10;;;24.33;;
13303;SDS011;6720;51.958;4.540;2023-01-29T12:57:39;29.10;;;24.50;;
13303;SDS011;6720;51.958;4.540;2023-01-29T13:00:09;27.90;;;24.23;;
13303;SDS011;6720;51.958;4.540;2023-01-29T13:05:22;29.97;;;25.20;;
13303;SDS011;6720;51.958;4.540;2023-01-29T13:08:10;27.43;;;22.27;;
13303;SDS011;6720;51.958;4.540;2023-01-29T13:10:35;29.57;;;24.10;;
13303;SDS011;6720;51.958;4.540;2023-01-29T13:13:03;27.07;;;22.53;;
13303;SDS011;6720;51.958;4.540;2023-01-29T13:15:30;26.23;;;22.47;;
13303;SDS011;6720;51.958;4.540;2023-01-29T13:20:31;28.23;;;23.27;;
13303;SDS011;6720;51.958;4.540;2023-01-29T13:23:01;27.00;;;22.23;;
13303;SDS011;6720;51.958;4.540;2023-01-29T13:25:29;27.87;;;22.80;;
13303;SDS011;6720;51.958;4.540;2023-01-29T13:27:55;28.63;;;22.80;;
13303;SDS011;6720;51.958;4.540;2023-01-29T13:30:30;27.53;;;22.50;;
13303;SDS011;6720;51.958;4.540;2023-01-29T13:32:55;28.00;;;22.93;;
13303;SDS011;6720;51.958;4.540;2023-01-29T13:35:32;25.30;;;19.83;;
13303;SDS011;6720;51.958;4.540;2023-01-29T13:37:59;26.13;;;21.87;;
13303;SDS011;6720;51.958;4.540;2023-01-29T13:40:24;28.70;;;22.80;;
13303;SDS011;6720;51.958;4.540;2023-01-29T13:42:50;28.33;;;23.70;;
13303;SDS011;6720;51.958;4.540;2023-01-29T13:45:23;27.57;;;23.07;;
13303;SDS011;6720;51.958;4.540;2023-01-29T13:47:49;31.93;;;24.40;;
13303;SDS011;6720;51.958;4.540;2023-01-29T13:52:53;27.07;;;23.00;;
13303;SDS011;6720;51.958;4.540;2023-01-29T13:55:21;26.77;;;22.27;;
13303;SDS011;6720;51.958;4.540;2023-01-29T13:57:51;25.37;;;19.90;;
13303;SDS011;6720;51.958;4.540;2023-01-29T14:02:44;25.60;;;21.23;;
13303;SDS011;6720;51.958;4.540;2023-01-29T14:07:53;27.17;;;20.70;;
13303;SDS011;6720;51.958;4.540;2023-01-29T14:10:20;28.50;;;23.40;;
13303;SDS011;6720;51.958;4.540;2023-01-29T14:12:46;25.77;;;21.37;;
13303;SDS011;6720;51.958;4.540;2023-01-29T14:15:22;26.67;;;22.07;;
13303;SDS011;6720;51.958;4.540;2023-01-29T14:20:25;24.07;;;19.73;;
13303;SDS011;6720;51.958;4.540;2023-01-29T14:22:53;24.63;;;19.80;;
13303;SDS011;6720;51.958;4.540;2023-01-29T14:25:20;25.90;;;19.37;;
13303;SDS011;6720;51.958;4.540;2023-01-29T14:27:47;29.47;;;21.90;;
13303;SDS011;6720;51.958;4.540;2023-01-29T14:30:15;29.93;;;23.23;;
13303;SDS011;6720;51.958;4.540;2023-01-29T14:32:41;24.43;;;18.93;;
13303;SDS011;6720;51.958;4.540;2023-01-29T14:35:17;28.50;;;21.47;;
13303;SDS011;6720;51.958;4.540;2023-01-29T14:37:44;24.90;;;19.53;;
13303;SDS011;6720;51.958;4.540;2023-01-29T14:45:37;26.17;;;19.63;;
13303;SDS011;6720;51.958;4.540;2023-01-29T14:53:02;27.70;;;20.50;;
13303;SDS011;6720;51.958;4.540;2023-01-29T14:55:29;26.30;;;18.67;;
13303;SDS011;6720;51.958;4.540;2023-01-29T14:57:59;25.90;;;20.70;;
13303;SDS011;6720;51.958;4.540;2023-01-29T15:00:26;25.13;;;19.70;;
13303;SDS011;6720;51.958;4.540;2023-01-29T15:02:52;27.67;;;20.03;;
13303;SDS011;6720;51.958;4.540;2023-01-29T15:05:19;25.50;;;19.67;;
13303;SDS011;6720;51.958;4.540;2023-01-29T15:07:55;24.87;;;19.97;;
13303;SDS011;6720;51.958;4.540;2023-01-29T15:10:25;24.80;;;19.70;;
13303;SDS011;6720;51.958;4.540;2023-01-29T15:15:20;24.47;;;19.53;;
13303;SDS011;6720;51.958;4.540;2023-01-29T15:18:00;26.70;;;19.73;;
13303;SDS011;6720;51.958;4.540;2023-01-29T15:20:29;25.63;;;18.63;;
13303;SDS011;6720;51.958;4.540;2023-01-29T15:22:54;26.10;;;20.70;;
13303;SDS011;6720;51.958;4.540;2023-01-29T15:25:20;27.23;;;20.50;;
13303;SDS011;6720;51.958;4.540;2023-01-29T15:27:45;25.60;;;20.77;;
13303;SDS011;6720;51.958;4.540;2023-01-29T15:30:32;29.73;;;21.57;;
13303;SDS011;6720;51.958;4.540;2023-01-29T15:32:56;27.60;;;20.97;;
13303;SDS011;6720;51.958;4.540;2023-01-29T15:35:30;26.13;;;20.77;;
13303;SDS011;6720;51.958;4.540;2023-01-29T15:40:52;30.20;;;22.27;;
13303;SDS011;6720;51.958;4.540;2023-01-29T15:43:22;28.43;;;22.53;;
13303;SDS011;6720;51.958;4.540;2023-01-29T15:45:48;26.07;;;19.93;;
13303;SDS011;6720;51.958;4.540;2023-01-29T15:48:21;28.30;;;20.20;;
13303;SDS011;6720;51.958;4.540;2023-01-29T15:50:49;28.63;;;21.17;;
13303;SDS011;6720;51.958;4.540;2023-01-29T15:53:20;27.47;;;21.07;;
13303;SDS011;6720;51.958;4.540;2023-01-29T15:55:45;26.10;;;20.90;;
13303;SDS011;6720;51.958;4.540;2023-01-29T15:58:15;28.30;;;22.37;;
13303;SDS011;6720;51.958;4.540;2023-01-29T16:00:47;26.60;;;20.03;;
13303;SDS011;6720;51.958;4.540;2023-01-29T16:03:13;26.40;;;21.77;;
13303;SDS011;6720;51.958;4.540;2023-01-29T16:05:39;31.20;;;22.30;;
13303;SDS011;6720;51.958;4.540;2023-01-29T16:08:05;30.77;;;22.20;;
13303;SDS011;6720;51.958;4.540;2023-01-29T16:10:31;25.73;;;21.20;;
13303;SDS011;6720;51.958;4.540;2023-01-29T16:12:57;28.67;;;21.13;;
13303;SDS011;6720;51.958;4.540;2023-01-29T16:15:28;27.47;;;21.70;;
13303;SDS011;6720;51.958;4.540;2023-01-29T16:17:55;28.90;;;23.83;;
13303;SDS011;6720;51.958;4.540;2023-01-29T16:20:31;29.60;;;22.63;;
13303;SDS011;6720;51.958;4.540;2023-01-29T16:22:57;28.70;;;22.27;;
13303;SDS011;6720;51.958;4.540;2023-01-29T16:25:23;28.80;;;24.13;;
13303;SDS011;6720;51.958;4.540;2023-01-29T16:27:48;28.40;;;21.93;;
13303;SDS011;6720;51.958;4.540;2023-01-29T16:30:15;29.63;;;23.57;;
13303;SDS011;6720;51.958;4.540;2023-01-29T16:32:40;26.30;;;22.50;;
13303;SDS011;6720;51.958;4.540;2023-01-29T16:35:06;30.00;;;22.80;;
13303;SDS011;6720;51.958;4.540;2023-01-29T16:37:32;29.13;;;23.57;;
13303;SDS011;6720;51.958;4.540;2023-01-29T16:40:00;33.27;;;24.13;;
13303;SDS011;6720;51.958;4.540;2023-01-29T16:42:36;30.33;;;23.53;;
13303;SDS011;6720;51.958;4.540;2023-01-29T16:45:44;31.17;;;22.87;;
13303;SDS011;6720;51.958;4.540;2023-01-29T16:47:58;28.87;;;21.33;;
13303;SDS011;6720;51.958;4.540;2023-01-29T16:50:31;28.70;;;23.57;;
13303;SDS011;6720;51.958;4.540;2023-01-29T16:55:26;30.07;;;23.57;;
13303;SDS011;6720;51.958;4.540;2023-01-29T16:57:56;27.47;;;22.17;;
13303;SDS011;6720;51.958;4.540;2023-01-29T17:02:46;30.60;;;23.77;;
13303;SDS011;6720;51.958;4.540;2023-01-29T17:05:47;32.20;;;24.80;;
13303;SDS011;6720;51.958;4.540;2023-01-29T17:08:06;30.70;;;23.30;;
13303;SDS011;6720;51.958;4.540;2023-01-29T17:10:31;27.57;;;22.93;;
13303;SDS011;6720;51.958;4.540;2023-01-29T17:13:04;29.37;;;23.83;;